Time;durP1;ratioP1;P1;durP2;ratioP2;P2;SDS_P1;SDS_P2;PMS_P1;PMS_P2;Temp;Humidity;BMP_temperature;BMP_pressure;BME280_temperature;BME280_humidity;BME280_pressure;Samples;Min_cycle;Max_cycle;Signal;HPM_P1;HPM_P2
2023/01/18 00:01:36;;;;;;;;;;;;;;;-2.88;100.00;93709.28;5024477;28;19924;-69
2023/01/18 00:04:02;;;;;;;;;;;;;;;-2.93;100.00;93713.00;5023114;28;19921;-70
2023/01/18 00:06:27;;;;;;;;;;;;;;;-2.91;100.00;93715.31;5020722;28;19917;-71
2023/01/18 00:08:52;;;;;;;;;;;;;;;-2.83;100.00;93718.91;5023994;28;19917;-69
2023/01/18 00:11:18;;;;;;;;;;;;;;;-2.78;100.00;93719.38;5019743;28;20015;-70
2023/01/18 00:13:43;;;;;;;;;;;;;;;-2.71;100.00;93724.88;5023070;28;20020;-71
2023/01/18 00:16:13;;;;;;;;;;;;;;;-2.69;100.00;93727.97;5023087;28;19923;-71
2023/01/18 00:18:38;;;;;;;;;;;;;;;-2.61;100.00;93725.44;5035056;28;20368;-71
2023/01/18 00:21:05;;;;;;;;;;;;;;;-2.55;100.00;93724.78;5028015;28;19921;-72
2023/01/18 00:23:31;;;;;;;;;;;;;;;-2.41;100.00;93723.47;5038464;28;19920;-71
2023/01/18 00:26:03;;;;;;;;;;;;;;;-2.25;100.00;93716.13;5065127;28;20387;-72
2023/01/18 00:28:29;;;;;;;;;;;;;;;-2.21;100.00;93724.22;5058214;28;19924;-71
2023/01/18 00:30:54;;;;;;;;;;;;;;;-2.24;100.00;93727.63;5043164;28;19917;-71
2023/01/18 00:33:19;;;;;;;;;;;;;;;-2.31;100.00;93717.53;5039139;28;19921;-71
2023/01/18 00:35:53;;;;;;;;;;;;;;;-2.29;100.00;93726.00;5043041;28;19931;-71
2023/01/18 00:38:19;;;;;;;;;;;;;;;-2.13;100.00;93729.34;5037831;28;19920;-71
2023/01/18 00:40:45;;;;;;;;;;;;;;;-2.18;100.00;93732.34;5044142;28;20497;-71
2023/01/18 00:45:54;;;;;;;;;;;;;;;-2.03;100.00;93744.06;5059130;28;19917;-71
2023/01/18 00:48:19;;;;;;;;;;;;;;;-1.86;100.00;93742.78;5039843;28;19920;-71
2023/01/18 00:50:44;;;;;;;;;;;;;;;-1.73;100.00;93746.06;5050911;28;19916;-71
2023/01/18 00:53:10;;;;;;;;;;;;;;;-1.72;100.00;93747.63;5032161;28;19916;-71
2023/01/18 00:55:35;;;;;;;;;;;;;;;-1.44;100.00;93757.22;5042237;28;19924;-70
2023/01/18 00:58:00;;;;;;;;;;;;;;;-1.39;100.00;93756.91;5025847;28;19917;-71
2023/01/18 01:00:25;;;;;;;;;;;;;;;-1.30;100.00;93752.03;5038218;28;20433;-71
2023/01/18 01:02:51;;;;;;;;;;;;;;;-1.28;100.00;93762.44;5042768;28;19956;-70
2023/01/18 01:08:02;;;;;;;;;;;;;;;-1.63;100.00;93760.78;5044505;28;20018;-70
2023/01/18 01:10:27;;;;;;;;;;;;;;;-1.70;100.00;93758.75;5053621;28;20409;-70
2023/01/18 01:26:32;;;;;;;;;;;;;;;-1.81;100.00;93777.38;5042156;28;19979;-71
2023/01/18 01:28:57;;;;;;;;;;;;;;;-1.71;100.00;93777.91;5042559;28;19924;-71
2023/01/18 01:31:22;;;;;;;;;;;;;;;-1.64;100.00;93781.47;5037544;28;20384;-71
2023/01/18 01:33:48;;;;;;;;;;;;;;;-1.49;100.00;93784.38;5040693;28;19924;-71
2023/01/18 01:36:15;;;;;;;;;;;;;;;-1.44;100.00;93784.06;5018304;28;21263;-71
2023/01/18 01:38:40;;;;;;;;;;;;;;;-1.39;100.00;93786.44;5024270;28;19917;-70
2023/01/18 01:41:16;;;;;;;;;;;;;;;-1.35;100.00;93787.28;5037598;28;19916;-70
2023/01/18 01:43:48;;;;;;;;;;;;;;;-1.06;100.00;93795.72;5042238;28;20299;-71
2023/01/18 01:46:23;;;;;;;;;;;;;;;-0.85;100.00;93797.91;5037050;28;19974;-71
2023/01/18 01:48:49;;;;;;;;;;;;;;;-0.67;100.00;93801.59;5042129;28;19925;-71
2023/01/18 01:51:17;;;;;;;;;;;;;;;-0.68;100.00;93796.63;5043371;28;19948;-72
2023/01/18 01:53:44;;;;;;;;;;;;;;;-0.45;100.00;93796.47;5029080;28;20007;-71
2023/01/18 01:56:10;;;;;;;;;;;;;;;-0.30;100.00;93802.81;5018690;28;20397;-71
2023/01/18 01:58:35;;;;;;;;;;;;;;;-0.17;100.00;93798.72;5042030;28;19960;-72
2023/01/18 02:01:01;;;;;;;;;;;;;;;-0.10;100.00;93796.09;5042708;28;19946;-70
2023/01/18 02:03:27;;;;;;;;;;;;;;;-0.03;100.00;93798.09;5018866;28;19925;-71
2023/01/18 02:05:56;;;;;;;;;;;;;;;0.12;100.00;93796.31;5041318;28;19975;-71
2023/01/18 02:08:23;;;;;;;;;;;;;;;0.21;100.00;93799.47;5004859;28;20027;-70
2023/01/18 02:10:49;;;;;;;;;;;;;;;0.06;100.00;93812.00;5045623;28;19956;-71
2023/01/18 02:13:15;;;;;;;;;;;;;;;-0.10;100.00;93793.41;5019311;28;19990;-71
2023/01/18 02:15:46;;;;;;;;;;;;;;;-0.20;100.00;93802.13;5039865;28;20003;-71
2023/01/18 02:18:17;;;;;;;;;;;;;;;-0.33;100.00;93804.31;5036326;28;19916;-71
2023/01/18 02:21:02;;;;;;;;;;;;;;;-0.36;100.00;93807.75;5043319;28;20369;-71
2023/01/18 02:23:33;;;;;;;;;;;;;;;-0.24;100.00;93801.31;5025736;28;19965;-71
2023/01/18 02:25:59;;;;;;;;;;;;;;;-0.14;100.00;93816.81;5023178;28;19920;-71
2023/01/18 02:28:29;;;;;;;;;;;;;;;-0.10;100.00;93814.94;5022280;28;19970;-71
2023/01/18 02:31:00;;;;;;;;;;;;;;;-0.13;100.00;93812.19;5045658;28;19917;-71
2023/01/18 02:33:26;;;;;;;;;;;;;;;-0.11;100.00;93817.97;5041754;28;20286;-71
2023/01/18 02:35:55;;;;;;;;;;;;;;;-0.05;100.00;93827.28;5027648;28;19917;-70
2023/01/18 02:38:24;;;;;;;;;;;;;;;-0.01;100.00;93825.41;5040894;28;19920;-71
2023/01/18 02:41:03;;;;;;;;;;;;;;;0.06;100.00;93822.00;5046793;28;19924;-71
2023/01/18 02:49:11;;;;;;;;;;;;;;;0.10;100.00;93820.88;5034617;28;19928;-71
2023/01/18 02:51:37;;;;;;;;;;;;;;;0.12;100.00;93821.28;5058112;28;19920;-71
2023/01/18 02:54:06;;;;;;;;;;;;;;;0.16;100.00;93824.81;5069697;28;20015;-71
2023/01/18 02:56:36;;;;;;;;;;;;;;;0.18;100.00;93832.50;5067335;28;19917;-71
2023/01/18 02:59:07;;;;;;;;;;;;;;;0.19;100.00;93825.97;5052579;28;19939;-71
2023/01/18 03:01:40;;;;;;;;;;;;;;;0.26;100.00;93836.81;5044278;28;19980;-71
2023/01/18 03:04:13;;;;;;;;;;;;;;;0.29;100.00;93829.91;5058668;28;19927;-71
2023/01/18 03:06:41;;;;;;;;;;;;;;;0.30;100.00;93829.53;5051608;28;19921;-70
2023/01/18 03:09:07;;;;;;;;;;;;;;;0.30;100.00;93829.53;5037531;28;20281;-70
2023/01/18 03:11:45;;;;;;;;;;;;;;;0.32;100.00;93837.25;5046164;28;19921;-71
2023/01/18 03:14:10;;;;;;;;;;;;;;;0.35;100.00;93833.81;5021849;28;19924;-71
2023/01/18 03:16:56;;;;;;;;;;;;;;;0.28;100.00;93837.22;5045084;28;19916;-71
2023/01/18 03:22:09;;;;;;;;;;;;;;;0.28;100.00;93836.44;5040276;28;19928;-71
2023/01/18 03:24:40;;;;;;;;;;;;;;;0.31;100.00;93839.16;5027589;28;19928;-70
2023/01/18 03:35:19;;;;;;;;;;;;;;;0.35;100.00;93855.34;5038663;28;19972;-72
2023/01/18 03:37:46;;;;;;;;;;;;;;;0.47;100.00;93851.59;5026257;28;20019;-71
2023/01/18 03:40:12;;;;;;;;;;;;;;;0.46;100.00;93850.06;5022605;28;19916;-70
2023/01/18 03:42:43;;;;;;;;;;;;;;;0.46;100.00;93858.91;5045438;28;19917;-71
2023/01/18 03:45:19;;;;;;;;;;;;;;;0.44;100.00;93850.44;5021941;28;19978;-71
2023/01/18 03:47:49;;;;;;;;;;;;;;;0.40;100.00;93854.22;5043845;28;19976;-70
2023/01/18 03:50:15;;;;;;;;;;;;;;;0.55;100.00;93847.84;5004109;28;19970;-72
2023/01/18 03:52:41;;;;;;;;;;;;;;;0.45;100.00;93861.97;5050271;28;19916;-71
2023/01/18 03:55:20;;;;;;;;;;;;;;;0.46;100.00;93867.00;5050696;28;19917;-71
2023/01/18 03:57:50;;;;;;;;;;;;;;;0.51;100.00;93863.19;5059793;28;19917;-72
2023/01/18 04:00:16;;;;;;;;;;;;;;;0.63;100.00;93867.50;5039617;28;20007;-72
2023/01/18 04:02:45;;;;;;;;;;;;;;;0.61;100.00;93869.81;5043649;28;20015;-73
2023/01/18 04:05:11;;;;;;;;;;;;;;;0.56;100.00;93868.25;5039104;28;19932;-71
2023/01/18 04:07:36;;;;;;;;;;;;;;;0.54;100.00;93873.22;5044151;28;19916;-72
2023/01/18 04:10:02;;;;;;;;;;;;;;;0.53;100.00;93877.81;5057053;28;19917;-71
2023/01/18 04:12:30;;;;;;;;;;;;;;;0.69;100.00;93885.66;5033388;28;19924;-71
2023/01/18 04:14:56;;;;;;;;;;;;;;;0.82;100.00;93872.69;5044478;28;20003;-71
2023/01/18 04:17:22;;;;;;;;;;;;;;;0.82;100.00;93883.47;5039499;28;19971;-71
2023/01/18 04:19:47;;;;;;;;;;;;;;;0.69;100.00;93885.66;5043751;28;19917;-71
2023/01/18 04:22:13;;;;;;;;;;;;;;;0.89;100.00;93888.91;5039059;28;19917;-71
2023/01/18 04:24:38;;;;;;;;;;;;;;;0.83;100.00;93893.09;5042820;28;19929;-71
2023/01/18 04:27:04;;;;;;;;;;;;;;;0.72;100.00;93884.94;5039462;28;19924;-68
2023/01/18 04:29:29;;;;;;;;;;;;;;;0.73;100.00;93891.84;5043523;28;19920;-70
2023/01/18 04:31:55;;;;;;;;;;;;;;;0.67;100.00;93896.03;5043559;28;20370;-71
2023/01/18 04:34:23;;;;;;;;;;;;;;;0.75;100.00;93900.34;5044625;28;19924;-70
2023/01/18 04:36:51;;;;;;;;;;;;;;;0.72;100.00;93901.09;5062803;28;19917;-71
2023/01/18 04:39:16;;;;;;;;;;;;;;;0.83;100.00;93905.78;5042051;28;20000;-71
2023/01/18 04:41:42;;;;;;;;;;;;;;;0.76;100.00;93909.22;5027592;28;19925;-71
2023/01/18 04:44:08;;;;;;;;;;;;;;;0.81;100.00;93910.78;5037615;28;20290;-70
2023/01/18 04:46:33;;;;;;;;;;;;;;;0.77;100.00;93913.44;5042529;28;19917;-71
2023/01/18 04:48:59;;;;;;;;;;;;;;;0.77;100.00;93918.81;5042680;28;19951;-71
2023/01/18 04:51:24;;;;;;;;;;;;;;;0.79;100.00;93916.53;5038160;28;20412;-71
2023/01/18 04:53:50;;;;;;;;;;;;;;;0.82;100.00;93925.81;5051219;28;19940;-71
2023/01/18 04:56:15;;;;;;;;;;;;;;;0.87;100.00;93923.53;5056571;28;19947;-71
2023/01/18 04:58:41;;;;;;;;;;;;;;;0.78;100.00;93927.72;5051675;28;19971;-71
2023/01/18 05:01:07;;;;;;;;;;;;;;;0.80;100.00;93936.94;5038666;28;19917;-71
2023/01/18 05:03:37;;;;;;;;;;;;;;;0.89;100.00;93939.34;5042549;28;19937;-69
2023/01/18 05:06:09;;;;;;;;;;;;;;;0.80;100.00;93945.03;5041874;28;19921;-69
2023/01/18 05:08:38;;;;;;;;;;;;;;;0.84;100.00;93945.06;5025776;28;20293;-71
2023/01/18 05:11:04;;;;;;;;;;;;;;;0.85;100.00;93946.63;5022156;28;20502;-70
2023/01/18 05:13:29;;;;;;;;;;;;;;;0.78;100.00;93952.72;5043843;28;19917;-71
2023/01/18 05:15:55;;;;;;;;;;;;;;;0.66;100.00;93956.44;5051155;28;19917;-73
2023/01/18 05:18:20;;;;;;;;;;;;;;;0.62;100.00;93957.56;5046815;28;19943;-71
2023/01/18 05:20:46;;;;;;;;;;;;;;;0.68;100.00;93959.53;5047946;28;19917;-71
2023/01/18 05:23:13;;;;;;;;;;;;;;;0.77;100.00;93967.31;5040725;28;20346;-72
2023/01/18 05:25:38;;;;;;;;;;;;;;;0.75;100.00;93972.31;5042725;28;19920;-71
2023/01/18 05:28:04;;;;;;;;;;;;;;;0.72;100.00;93976.53;5023021;28;19932;-71
2023/01/18 05:30:29;;;;;;;;;;;;;;;0.73;100.00;93983.44;5041141;28;19928;-71
2023/01/18 05:32:55;;;;;;;;;;;;;;;0.78;100.00;93979.66;5042588;28;19963;-72
2023/01/18 05:35:20;;;;;;;;;;;;;;;0.83;100.00;93983.94;5045523;28;19940;-71
2023/01/18 05:37:45;;;;;;;;;;;;;;;0.84;100.00;93982.78;5025895;28;20370;-71
2023/01/18 05:40:11;;;;;;;;;;;;;;;0.74;100.00;93992.34;5020811;28;20293;-71
2023/01/18 05:42:36;;;;;;;;;;;;;;;0.69;100.00;93987.28;5042843;28;19960;-72
2023/01/18 05:45:02;;;;;;;;;;;;;;;0.73;100.00;93996.91;5040739;28;20169;-72
2023/01/18 05:47:28;;;;;;;;;;;;;;;0.69;100.00;93993.44;5040023;28;19916;-71
2023/01/18 05:49:56;;;;;;;;;;;;;;;0.70;100.00;93999.59;5041909;28;19916;-70
2023/01/18 05:52:21;;;;;;;;;;;;;;;0.67;100.00;94003.81;5036601;28;20337;-71
2023/01/18 05:54:47;;;;;;;;;;;;;;;0.68;100.00;94004.56;5052059;28;20393;-71
2023/01/18 05:57:12;;;;;;;;;;;;;;;0.65;100.00;94000.69;5056231;28;19923;-71
2023/01/18 05:59:38;;;;;;;;;;;;;;;0.64;100.00;93999.13;5042803;28;19968;-71
2023/01/18 06:02:03;;;;;;;;;;;;;;;0.69;100.00;94009.59;5021191;28;19920;-73
2023/01/18 06:04:29;;;;;;;;;;;;;;;0.64;100.00;94014.53;5041381;28;19948;-72
2023/01/18 06:06:54;;;;;;;;;;;;;;;0.66;100.00;94020.31;5041757;28;20015;-72
2023/01/18 06:09:19;;;;;;;;;;;;;;;0.68;100.00;94023.41;5038631;28;19917;-71
2023/01/18 06:11:44;;;;;;;;;;;;;;;0.74;100.00;94022.72;5042080;28;20285;-73
2023/01/18 06:14:10;;;;;;;;;;;;;;;0.75;100.00;94031.59;5036306;28;19917;-72
2023/01/18 06:16:35;;;;;;;;;;;;;;;0.74;100.00;94035.44;5041350;28;19920;-70
2023/01/18 06:19:00;;;;;;;;;;;;;;;0.83;100.00;94040.50;5024021;28;19920;-71
2023/01/18 06:21:26;;;;;;;;;;;;;;;0.80;100.00;94041.28;5036843;28;19921;-71
2023/01/18 06:23:51;;;;;;;;;;;;;;;0.78;100.00;94048.94;5024659;28;20243;-72
2023/01/18 06:26:16;;;;;;;;;;;;;;;0.76;100.00;94043.94;5019534;28;19920;-71
2023/01/18 06:28:42;;;;;;;;;;;;;;;0.79;100.00;94053.94;5042291;28;19931;-72
2023/01/18 06:31:07;;;;;;;;;;;;;;;0.81;100.00;94064.34;5036562;28;20390;-73
2023/01/18 06:33:32;;;;;;;;;;;;;;;0.74;100.00;94060.44;5042525;28;19917;-74
2023/01/18 06:36:00;;;;;;;;;;;;;;;0.78;100.00;94070.50;5041986;28;19921;-73
2023/01/18 06:38:25;;;;;;;;;;;;;;;0.79;100.00;94062.03;5038360;28;19921;-72
2023/01/18 06:40:50;;;;;;;;;;;;;;;0.82;100.00;94074.78;5042171;28;20354;-73
2023/01/18 06:43:16;;;;;;;;;;;;;;;0.91;100.00;94082.56;5000869;28;19917;-74
2023/01/18 06:45:41;;;;;;;;;;;;;;;0.98;100.00;94088.03;5040788;28;20329;-74
2023/01/18 06:48:06;;;;;;;;;;;;;;;0.93;100.00;94083.75;5037170;28;20510;-74
2023/01/18 06:50:32;;;;;;;;;;;;;;;1.04;100.00;94088.47;5041897;28;19944;-74
2023/01/18 06:52:58;;;;;;;;;;;;;;;0.96;100.00;94090.34;5032592;28;20238;-74
2023/01/18 06:55:23;;;;;;;;;;;;;;;0.91;100.00;94088.72;5048771;28;19916;-73
2023/01/18 06:57:48;;;;;;;;;;;;;;;0.93;100.00;94093.75;5062249;28;20296;-73
2023/01/18 07:00:15;;;;;;;;;;;;;;;1.07;100.00;94093.16;5019837;28;19921;-77
2023/01/18 07:02:41;;;;;;;;;;;;;;;0.95;100.00;94094.16;5042065;28;19917;-76
2023/01/18 07:05:06;;;;;;;;;;;;;;;0.76;100.00;94103.97;5038354;28;19925;-74
2023/01/18 07:07:31;;;;;;;;;;;;;;;0.79;100.00;94107.06;5027724;28;19917;-74
2023/01/18 07:09:57;;;;;;;;;;;;;;;0.71;100.00;94112.38;5029747;28;20007;-74
2023/01/18 07:12:22;;;;;;;;;;;;;;;0.53;100.00;94114.84;5042341;28;20368;-76
2023/01/18 07:14:47;;;;;;;;;;;;;;;0.52;100.00;94121.38;5037779;28;20374;-75
2023/01/18 07:17:13;;;;;;;;;;;;;;;0.58;100.00;94129.91;5023885;28;19917;-75
2023/01/18 07:19:38;;;;;;;;;;;;;;;0.54;100.00;94132.56;5027916;28;19986;-75
2023/01/18 07:22:03;;;;;;;;;;;;;;;0.52;100.00;94140.22;5024077;28;19921;-78
2023/01/18 07:24:29;;;;;;;;;;;;;;;0.59;100.00;94147.63;5072580;28;19956;-76
2023/01/18 07:26:54;;;;;;;;;;;;;;;0.49;100.00;94153.66;5064533;28;19927;-75
2023/01/18 07:29:20;;;;;;;;;;;;;;;0.54;100.00;94156.00;5060084;28;20297;-75
2023/01/18 07:31:45;;;;;;;;;;;;;;;0.45;100.00;94156.28;5067230;28;19916;-76
2023/01/18 07:34:11;;;;;;;;;;;;;;;0.34;100.00;94166.91;5056802;28;19988;-75
2023/01/18 07:36:38;;;;;;;;;;;;;;;0.31;100.00;94174.94;5064723;28;19917;-75
2023/01/18 07:39:05;;;;;;;;;;;;;;;0.31;100.00;94175.72;5062075;28;19922;-78
2023/01/18 07:41:30;;;;;;;;;;;;;;;0.32;100.00;94173.78;5065806;28;20009;-75
2023/01/18 07:43:56;;;;;;;;;;;;;;;0.44;100.00;94183.59;5073261;28;19920;-75
2023/01/18 07:46:21;;;;;;;;;;;;;;;0.28;100.00;94192.59;5047716;28;20372;-75
2023/01/18 07:48:47;;;;;;;;;;;;;;;0.31;100.00;94188.41;5051362;28;19917;-75
2023/01/18 07:51:13;;;;;;;;;;;;;;;0.37;100.00;94193.09;5061743;28;19959;-75
2023/01/18 07:53:38;;;;;;;;;;;;;;;0.63;100.00;94194.25;5035592;28;19921;-76
2023/01/18 07:56:06;;;;;;;;;;;;;;;0.66;100.00;94195.44;5058343;28;20390;-78
2023/01/18 07:58:31;;;;;;;;;;;;;;;0.66;100.00;94206.22;5050762;28;19939;-76
2023/01/18 08:01:04;;;;;;;;;;;;;;;0.45;100.00;94204.78;5084077;28;19916;-76
2023/01/18 08:03:29;;;;;;;;;;;;;;;0.40;100.00;94209.66;5069552;28;19924;-77
2023/01/18 08:05:57;;;;;;;;;;;;;;;0.50;100.00;94211.75;5065124;28;20308;-77
2023/01/18 08:08:22;;;;;;;;;;;;;;;0.37;100.00;94224.66;5059600;28;20353;-75
2023/01/18 08:10:47;;;;;;;;;;;;;;;0.27;100.00;94226.03;5064895;28;19940;-75
2023/01/18 08:13:12;;;;;;;;;;;;;;;0.17;100.00;94218.56;5025076;28;19939;-77
2023/01/18 08:15:39;;;;;;;;;;;;;;;0.09;100.00;94231.13;5043186;28;19920;-74
2023/01/18 08:18:05;;;;;;;;;;;;;;;0.09;100.00;94235.72;5058486;28;19924;-78
2023/01/18 08:20:30;;;;;;;;;;;;;;;0.10;100.00;94240.75;5064388;28;19923;-76
2023/01/18 08:22:57;;;;;;;;;;;;;;;0.02;100.00;94241.78;5064290;28;19917;-76
2023/01/18 08:25:23;;;;;;;;;;;;;;;0.04;100.00;94238.72;5054424;28;20396;-77
2023/01/18 08:27:49;;;;;;;;;;;;;;;0.10;100.00;94248.06;5044298;28;20418;-76
2023/01/18 08:30:14;;;;;;;;;;;;;;;0.16;100.00;94250.09;5039390;28;19917;-76
2023/01/18 08:32:39;;;;;;;;;;;;;;;0.30;100.00;94254.16;5045318;28;19968;-76
2023/01/18 08:35:05;;;;;;;;;;;;;;;0.16;100.00;94254.69;5038714;28;20007;-76
2023/01/18 08:37:31;;;;;;;;;;;;;;;0.25;100.00;94263.28;5025545;28;20266;-76
2023/01/18 08:39:56;;;;;;;;;;;;;;;0.39;100.00;94265.44;5026634;28;20362;-76
2023/01/18 08:42:22;;;;;;;;;;;;;;;0.46;100.00;94268.25;5022577;28;20140;-76
2023/01/18 08:44:47;;;;;;;;;;;;;;;0.60;100.00;94272.31;5045325;28;19921;-76
2023/01/18 08:47:16;;;;;;;;;;;;;;;0.65;100.00;94277.38;5026394;28;19920;-75
2023/01/18 08:49:42;;;;;;;;;;;;;;;0.82;100.00;94286.88;5049639;28;19924;-76
2023/01/18 08:52:09;;;;;;;;;;;;;;;0.87;100.00;94292.72;5010358;28;19917;-76
2023/01/18 08:54:35;;;;;;;;;;;;;;;0.89;100.00;94292.38;5054034;28;20059;-76
2023/01/18 08:57:01;;;;;;;;;;;;;;;1.08;100.00;94304.94;5047715;28;19924;-77
2023/01/18 08:59:29;;;;;;;;;;;;;;;1.29;100.00;94307.16;5048527;28;19917;-75
2023/01/18 09:01:58;;;;;;;;;;;;;;;1.25;100.00;94307.13;5009016;28;19927;-78
2023/01/18 09:04:23;;;;;;;;;;;;;;;1.62;100.00;94308.34;5016335;28;20275;-77
2023/01/18 09:06:50;;;;;;;;;;;;;;;1.94;100.00;94314.09;5042966;28;19924;-75
2023/01/18 09:09:15;;;;;;;;;;;;;;;2.38;100.00;94313.41;5038916;28;19922;-75
2023/01/18 09:11:40;;;;;;;;;;;;;;;2.79;100.00;94317.97;5048344;28;19923;-77
2023/01/18 09:14:06;;;;;;;;;;;;;;;3.39;100.00;94327.66;5032373;28;19923;-75
2023/01/18 09:16:31;;;;;;;;;;;;;;;3.62;100.00;94328.16;5042793;28;19917;-77
2023/01/18 09:18:57;;;;;;;;;;;;;;;3.82;100.00;94333.28;5024868;28;19971;-76
2023/01/18 09:21:22;;;;;;;;;;;;;;;4.07;97.23;94336.09;5007085;28;19924;-74
2023/01/18 09:23:48;;;;;;;;;;;;;;;3.87;97.36;94349.16;5053573;28;19924;-77
2023/01/18 09:26:19;;;;;;;;;;;;;;;3.48;100.00;94351.69;5053056;28;19916;-74
2023/01/18 09:28:51;;;;;;;;;;;;;;;3.16;100.00;94365.78;5044680;28;19921;-77
2023/01/18 09:31:17;;;;;;;;;;;;;;;3.09;100.00;94374.59;5019599;28;19956;-77
2023/01/18 09:33:42;;;;;;;;;;;;;;;2.91;100.00;94376.41;5042910;28;19917;-75
2023/01/18 09:36:09;;;;;;;;;;;;;;;2.73;100.00;94382.41;5039560;28;19952;-75
2023/01/18 09:38:35;;;;;;;;;;;;;;;2.61;100.00;94380.78;5042754;28;19923;-76
2023/01/18 09:41:01;;;;;;;;;;;;;;;2.63;100.00;94385.81;5043616;28;20008;-76
2023/01/18 09:43:28;;;;;;;;;;;;;;;2.47;100.00;94381.41;5019913;28;19968;-75
2023/01/18 09:45:54;;;;;;;;;;;;;;;2.62;100.00;94393.13;5024883;28;19917;-76
2023/01/18 09:48:26;;;;;;;;;;;;;;;2.81;100.00;94399.47;5038712;28;19916;-75
2023/01/18 09:50:52;;;;;;;;;;;;;;;2.71;100.00;94395.53;5042868;28;20488;-76
2023/01/18 09:53:36;;;;;;;;;;;;;;;2.89;100.00;94398.41;5041178;28;19964;-75
2023/01/18 09:56:06;;;;;;;;;;;;;;;2.96;100.00;94398.47;5062799;28;19939;-76
2023/01/18 09:58:41;;;;;;;;;;;;;;;3.43;100.00;94410.41;5062909;28;19916;-76
2023/01/18 10:01:10;;;;;;;;;;;;;;;3.98;100.00;94420.41;5040410;28;20339;-76
2023/01/18 10:03:54;;;;;;;;;;;;;;;5.03;90.06;94418.00;5062033;28;19917;-76
2023/01/18 10:06:31;;;;;;;;;;;;;;;5.33;88.78;94431.16;5057164;28;19921;-76
2023/01/18 10:09:05;;;;;;;;;;;;;;;5.82;84.31;94429.59;5062877;28;19926;-77
2023/01/18 10:11:35;;;;;;;;;;;;;;;6.10;72.25;94436.13;5044505;28;19980;-76
2023/01/18 10:14:04;;;;;;;;;;;;;;;6.95;73.57;94439.66;5040274;28;20022;-74
2023/01/18 10:16:31;;;;;;;;;;;;;;;6.86;74.12;94433.88;5007435;28;20297;-76
2023/01/18 10:18:56;;;;;;;;;;;;;;;6.48;75.02;94437.19;5049555;28;19979;-77
2023/01/18 10:21:30;;;;;;;;;;;;;;;6.23;75.51;94444.63;5030631;28;20264;-76
2023/01/18 10:24:02;;;;;;;;;;;;;;;6.69;72.08;94449.13;5023201;28;19920;-75
2023/01/18 10:26:29;;;;;;;;;;;;;;;5.93;77.93;94443.16;5045943;28;19920;-76
2023/01/18 10:29:11;;;;;;;;;;;;;;;5.21;78.84;94448.63;5054237;28;20031;-75
2023/01/18 10:31:56;;;;;;;;;;;;;;;4.61;83.46;94455.50;5043285;28;19928;-75
2023/01/18 10:34:22;;;;;;;;;;;;;;;4.55;84.13;94452.34;5038768;28;20055;-75
2023/01/18 10:36:50;;;;;;;;;;;;;;;4.42;84.38;94453.88;5043596;28;19917;-77
2023/01/18 10:39:31;;;;;;;;;;;;;;;4.39;81.04;94466.25;5039076;28;19940;-77
2023/01/18 10:41:59;;;;;;;;;;;;;;;4.23;81.14;94473.91;5027332;28;19916;-76
2023/01/18 10:44:24;;;;;;;;;;;;;;;3.59;81.94;94474.31;5024676;28;19931;-74
2023/01/18 10:46:53;;;;;;;;;;;;;;;3.83;80.78;94478.34;5028278;28;19920;-75
2023/01/18 10:49:32;;;;;;;;;;;;;;;3.69;82.89;94483.66;5042329;28;19921;-75
2023/01/18 10:52:00;;;;;;;;;;;;;;;3.89;82.37;94478.75;5028411;28;19917;-75
2023/01/18 10:54:26;;;;;;;;;;;;;;;3.49;83.54;94486.59;5058786;28;19921;-75
2023/01/18 10:57:01;;;;;;;;;;;;;;;3.38;84.96;94493.88;5048091;28;19928;-76
2023/01/18 10:59:32;;;;;;;;;;;;;;;3.34;83.92;94495.78;5065539;28;19909;-76
2023/01/18 11:01:57;;;;;;;;;;;;;;;3.36;84.09;94496.16;5032969;28;20401;-74
2023/01/18 11:04:31;;;;;;;;;;;;;;;3.25;83.39;94504.97;5040661;28;19924;-76
2023/01/18 11:06:58;;;;;;;;;;;;;;;3.11;83.62;94504.81;5045932;28;19921;-75
2023/01/18 11:09:50;;;;;;;;;;;;;;;2.96;83.71;94497.75;5041693;28;20105;-76
2023/01/18 11:12:36;;;;;;;;;;;;;;;2.95;84.54;94496.94;5038200;28;20004;-75
2023/01/18 11:15:13;;;;;;;;;;;;;;;2.99;82.85;94496.97;5047013;28;20454;-74
2023/01/18 11:17:59;;;;;;;;;;;;;;;2.92;82.56;94503.13;5045505;28;20346;-74
2023/01/18 11:20:35;;;;;;;;;;;;;;;2.87;81.84;94511.56;5041669;28;19971;-74
2023/01/18 11:23:03;;;;;;;;;;;;;;;2.95;80.83;94513.16;5046838;28;19917;-76
2023/01/18 11:25:50;;;;;;;;;;;;;;;2.91;80.30;94517.75;5043043;28;20019;-76
2023/01/18 11:28:34;;;;;;;;;;;;;;;2.81;79.14;94513.81;5040473;28;19917;-74
2023/01/18 11:31:06;;;;;;;;;;;;;;;2.82;78.44;94517.28;5062213;28;19905;-75
2023/01/18 11:33:31;;;;;;;;;;;;;;;2.94;78.91;94522.44;5054458;28;19917;-75
2023/01/18 11:35:58;;;;;;;;;;;;;;;3.04;78.44;94526.41;5045592;28;20302;-76
2023/01/18 11:38:28;;;;;;;;;;;;;;;3.17;78.19;94519.59;5040810;28;20378;-76
2023/01/18 11:41:01;;;;;;;;;;;;;;;3.40;77.92;94521.31;5047089;28;19917;-75
2023/01/18 11:43:29;;;;;;;;;;;;;;;3.58;76.48;94524.19;5041417;28;20358;-76
2023/01/18 11:45:58;;;;;;;;;;;;;;;3.57;75.37;94531.53;5045628;28;19916;-77
2023/01/18 11:48:31;;;;;;;;;;;;;;;3.51;74.95;94534.94;5041061;28;20858;-75
2023/01/18 11:51:05;;;;;;;;;;;;;;;3.54;75.68;94536.91;5045568;28;20361;-76
2023/01/18 11:53:42;;;;;;;;;;;;;;;3.66;75.97;94533.94;5027796;28;20419;-75
2023/01/18 11:56:26;;;;;;;;;;;;;;;3.71;75.60;94533.59;5046825;28;19917;-76
2023/01/18 11:58:51;;;;;;;;;;;;;;;4.07;74.07;94539.25;5053361;28;19949;-76
2023/01/18 12:01:28;;;;;;;;;;;;;;;4.92;70.46;94545.47;5047439;28;19921;-76
2023/01/18 12:03:58;;;;;;;;;;;;;;;5.41;67.56;94545.97;5046770;28;19975;-74
2023/01/18 12:06:32;;;;;;;;;;;;;;;4.90;65.93;94548.56;5039823;28;20722;-76
2023/01/18 12:09:06;;;;;;;;;;;;;;;5.42;63.35;94555.66;5045044;28;19920;-76
2023/01/18 12:11:41;;;;;;;;;;;;;;;5.30;62.77;94562.25;5042973;28;20393;-76
2023/01/18 12:14:11;;;;;;;;;;;;;;;4.71;64.32;94555.06;5040827;28;19946;-73
2023/01/18 12:16:39;;;;;;;;;;;;;;;4.68;64.57;94569.41;5028363;28;19924;-74
2023/01/18 12:19:17;;;;;;;;;;;;;;;4.75;64.15;94574.88;5039703;28;19925;-77
2023/01/18 12:22:21;;;;;;;;;;;;;;;4.69;64.50;94570.19;5051857;28;19944;-77
2023/01/18 12:24:46;;;;;;;;;;;;;;;4.42;65.77;94575.06;4983634;28;19922;-75
2023/01/18 12:27:11;;;;;;;;;;;;;;;4.33;65.33;94573.47;5015502;28;20397;-76
2023/01/18 12:29:37;;;;;;;;;;;;;;;4.16;64.78;94590.38;5041642;28;19916;-75
2023/01/18 12:32:08;;;;;;;;;;;;;;;3.98;65.19;94601.06;5062999;28;19916;-77
2023/01/18 12:34:40;;;;;;;;;;;;;;;3.81;67.47;94600.56;5064124;28;19923;-76
2023/01/18 12:37:25;;;;;;;;;;;;;;;3.69;66.28;94600.06;5059068;28;19959;-75
2023/01/18 12:39:56;;;;;;;;;;;;;;;3.46;66.35;94603.75;5063403;28;19917;-75
2023/01/18 12:42:30;;;;;;;;;;;;;;;3.63;66.51;94603.13;5058433;28;20312;-74
2023/01/18 12:45:05;;;;;;;;;;;;;;;3.70;64.98;94615.94;5064036;28;19974;-74
2023/01/18 12:47:34;;;;;;;;;;;;;;;3.62;67.07;94611.63;5063461;28;19924;-74
2023/01/18 12:50:02;;;;;;;;;;;;;;;3.52;67.71;94612.28;5062875;28;19960;-74
2023/01/18 12:52:40;;;;;;;;;;;;;;;3.69;67.25;94619.81;5058441;28;19923;-74
2023/01/18 12:55:07;;;;;;;;;;;;;;;3.75;67.30;94622.97;5061060;28;19917;-77
2023/01/18 12:57:34;;;;;;;;;;;;;;;3.56;67.07;94632.81;5076173;28;19921;-75
2023/01/18 13:00:08;;;;;;;;;;;;;;;3.90;67.66;94635.47;5056987;28;19927;-74
2023/01/18 13:02:40;;;;;;;;;;;;;;;3.91;66.00;94637.03;5070929;28;19922;-75
2023/01/18 13:05:11;;;;;;;;;;;;;;;3.89;64.81;94636.63;5054266;28;19924;-75
2023/01/18 13:07:39;;;;;;;;;;;;;;;3.78;63.65;94641.94;5042482;28;19923;-74
2023/01/18 13:10:06;;;;;;;;;;;;;;;3.68;64.35;94639.91;5038351;28;19921;-77
2023/01/18 13:12:32;;;;;;;;;;;;;;;3.25;64.95;94653.00;5043343;28;19924;-74
2023/01/18 13:15:00;;;;;;;;;;;;;;;3.21;65.51;94644.06;5044167;28;19920;-73
2023/01/18 13:17:32;;;;;;;;;;;;;;;3.05;67.31;94645.03;5037819;28;19917;-74
2023/01/18 13:20:03;;;;;;;;;;;;;;;3.06;66.18;94646.59;5025077;28;19923;-73
2023/01/18 13:22:47;;;;;;;;;;;;;;;3.24;66.11;94654.94;5023857;28;19967;-75
2023/01/18 13:25:42;;;;;;;;;;;;;;;3.39;65.76;94650.44;5045407;28;19921;-74
2023/01/18 13:28:35;;;;;;;;;;;;;;;3.34;65.83;94668.94;5007155;28;20046;-75
2023/01/18 13:31:03;;;;;;;;;;;;;;;3.14;66.20;94671.81;5040269;28;20003;-74